Time;durP1;ratioP1;P1;durP2;ratioP2;P2;SDS_P1;SDS_P2;PMS_P1;PMS_P2;Temp;Humidity;BMP_temperature;BMP_pressure;BME280_temperature;BME280_humidity;BME280_pressure;Samples;Min_cycle;Max_cycle;Signal;HPM_P1;HPM_P2
2023/05/31 00:01:29;;;;;;;0.20;0.20;;;13.00;99.90;;;;;;5018410;28;20042;-67
2023/05/31 00:03:54;;;;;;;0.63;0.45;;;13.00;99.90;;;;;;5005548;28;20042;-67
2023/05/31 00:06:20;;;;;;;0.13;0.13;;;13.00;99.90;;;;;;5010351;28;20034;-67
2023/05/31 00:08:46;;;;;;;0.00;0.00;;;13.00;99.90;;;;;;5009405;28;20042;-67
2023/05/31 00:11:12;;;;;;;0.03;0.03;;;12.90;99.90;;;;;;5013001;28;20046;-67
2023/05/31 00:13:40;;;;;;;0.20;0.20;;;13.00;99.90;;;;;;5006208;28;20034;-67
2023/05/31 00:16:10;;;;;;;0.10;0.10;;;12.90;99.90;;;;;;5004895;28;20045;-68
2023/05/31 00:18:36;;;;;;;0.00;0.00;;;12.80;99.90;;;;;;5002785;28;20046;-67
2023/05/31 00:21:02;;;;;;;0.10;0.10;;;12.90;99.90;;;;;;5000341;28;21383;-68
2023/05/31 00:23:27;;;;;;;0.45;0.43;;;12.90;99.90;;;;;;4998892;28;20049;-68
2023/05/31 00:25:53;;;;;;;0.10;0.10;;;12.90;99.90;;;;;;5003552;28;20042;-68
2023/05/31 00:28:18;;;;;;;0.10;0.10;;;12.90;99.90;;;;;;5005843;28;20058;-68
2023/05/31 00:30:44;;;;;;;0.20;0.20;;;12.80;99.90;;;;;;5009471;28;20041;-67
2023/05/31 00:33:11;;;;;;;0.00;0.00;;;12.80;99.90;;;;;;5011320;28;20042;-68
2023/05/31 00:35:37;;;;;;;0.00;0.00;;;12.70;99.90;;;;;;5008808;28;20053;-68
2023/05/31 00:38:05;;;;;;;0.00;0.00;;;12.70;99.90;;;;;;5020613;28;20068;-67
2023/05/31 00:40:31;;;;;;;0.10;0.10;;;12.70;99.90;;;;;;5028737;28;20053;-68
2023/05/31 00:42:57;;;;;;;0.10;0.10;;;12.60;99.90;;;;;;5006600;28;20125;-68
2023/05/31 00:45:23;;;;;;;0.10;0.10;;;12.60;99.90;;;;;;5016927;28;20084;-67
2023/05/31 00:47:49;;;;;;;0.00;0.00;;;12.50;99.90;;;;;;5014629;28;20504;-68
2023/05/31 00:50:15;;;;;;;0.00;0.00;;;12.50;99.90;;;;;;5003041;28;20515;-68
2023/05/31 00:52:43;;;;;;;0.10;0.10;;;12.40;99.90;;;;;;5010756;28;20065;-68
2023/05/31 00:55:08;;;;;;;0.13;0.13;;;12.40;99.90;;;;;;5009208;28;20065;-68
2023/05/31 00:57:34;;;;;;;0.00;0.00;;;12.30;99.90;;;;;;5012505;28;20041;-68
2023/05/31 01:00:00;;;;;;;0.10;0.10;;;12.30;99.90;;;;;;5036631;28;20053;-68
2023/05/31 01:02:26;;;;;;;0.57;0.57;;;12.20;99.90;;;;;;5012468;28;20409;-68
2023/05/31 01:04:51;;;;;;;0.00;0.00;;;12.20;99.90;;;;;;5008635;28;20030;-68
2023/05/31 01:07:17;;;;;;;0.43;0.43;;;12.20;99.90;;;;;;5015504;28;20050;-67
2023/05/31 01:09:43;;;;;;;0.00;0.00;;;12.10;99.90;;;;;;4999319;28;20061;-68
2023/05/31 01:12:30;;;;;;;0.50;0.50;;;12.10;99.90;;;;;;5007265;28;20049;-67
2023/05/31 01:15:21;;;;;;;0.20;0.20;;;12.10;99.90;;;;;;5007843;28;20571;-68
2023/05/31 01:18:09;;;;;;;0.03;0.03;;;12.10;99.90;;;;;;5010555;28;20463;-68
2023/05/31 01:20:37;;;;;;;0.03;0.03;;;12.00;99.90;;;;;;5009882;28;20413;-67
2023/05/31 01:23:23;;;;;;;0.10;0.10;;;12.00;99.90;;;;;;5007260;28;20077;-67
2023/05/31 01:26:17;;;;;;;0.15;0.15;;;11.90;99.90;;;;;;5004973;28;20489;-68
2023/05/31 01:28:44;;;;;;;0.00;0.00;;;11.90;99.90;;;;;;5018606;28;20046;-68
2023/05/31 01:31:14;;;;;;;0.20;0.20;;;11.90;99.90;;;;;;5009878;28;20176;-68
2023/05/31 01:33:41;;;;;;;5.22;0.47;;;11.90;99.90;;;;;;5004716;28;20050;-67
2023/05/31 01:36:06;;;;;;;0.43;0.32;;;11.90;99.90;;;;;;5005977;28;20505;-68
2023/05/31 01:38:32;;;;;;;0.00;0.00;;;11.80;99.90;;;;;;5017017;28;20120;-68
2023/05/31 01:40:58;;;;;;;0.20;0.20;;;11.90;99.90;;;;;;5006133;28;20069;-68
2023/05/31 01:43:26;;;;;;;0.55;0.52;;;11.80;99.90;;;;;;5000795;28;20029;-67
2023/05/31 01:45:53;;;;;;;0.20;0.20;;;11.80;99.90;;;;;;5013356;28;20046;-68
2023/05/31 01:48:19;;;;;;;0.50;0.50;;;11.80;99.90;;;;;;5012574;28;20084;-68
2023/05/31 01:50:45;;;;;;;0.10;0.10;;;11.80;99.90;;;;;;5001580;28;20057;-67
2023/05/31 01:53:11;;;;;;;0.10;0.10;;;11.70;99.90;;;;;;5030023;28;20061;-68
2023/05/31 01:55:36;;;;;;;0.17;0.17;;;11.70;99.90;;;;;;5011136;28;20042;-68
2023/05/31 01:58:04;;;;;;;0.00;0.00;;;11.60;99.90;;;;;;5008526;28;20049;-67
2023/05/31 02:00:30;;;;;;;0.10;0.10;;;11.70;99.90;;;;;;5009530;28;20056;-67
2023/05/31 02:02:57;;;;;;;1.17;0.75;;;11.70;99.90;;;;;;5012232;28;20093;-68
2023/05/31 02:05:23;;;;;;;0.13;0.13;;;11.60;99.90;;;;;;5015962;28;20045;-67
2023/05/31 02:07:48;;;;;;;0.22;0.22;;;11.60;99.90;;;;;;5002958;28;20048;-67
2023/05/31 02:10:15;;;;;;;0.10;0.10;;;11.60;99.90;;;;;;5015551;28;20578;-67
2023/05/31 02:12:41;;;;;;;2.90;0.70;;;11.60;99.90;;;;;;5010758;28;20046;-67
2023/05/31 02:15:13;;;;;;;0.70;0.70;;;11.60;99.90;;;;;;4997034;28;20588;-67
2023/05/31 02:17:42;;;;;;;0.00;0.00;;;11.60;99.90;;;;;;5014454;28;20049;-67
2023/05/31 02:20:13;;;;;;;0.60;0.30;;;11.60;99.90;;;;;;5033100;28;20374;-67
2023/05/31 02:22:42;;;;;;;0.32;0.32;;;11.60;99.90;;;;;;5013130;28;20050;-67
2023/05/31 02:25:13;;;;;;;1.33;0.82;;;11.50;99.90;;;;;;5001773;28;20042;-67
2023/05/31 02:27:39;;;;;;;0.00;0.00;;;11.50;99.90;;;;;;5004626;28;20077;-67
2023/05/31 02:30:06;;;;;;;1.38;1.08;;;11.50;99.90;;;;;;5016081;28;20099;-67
2023/05/31 02:32:37;;;;;;;0.10;0.10;;;11.50;99.90;;;;;;5002152;28;20045;-67
2023/05/31 02:35:08;;;;;;;0.10;0.10;;;11.50;99.90;;;;;;5006065;28;20090;-68
2023/05/31 02:37:34;;;;;;;0.30;0.30;;;11.40;99.90;;;;;;5004288;28;20493;-67
2023/05/31 02:40:00;;;;;;;0.10;0.10;;;11.50;99.90;;;;;;5005867;28;20108;-67
2023/05/31 02:42:26;;;;;;;0.25;0.25;;;11.40;99.90;;;;;;5000680;28;20622;-67
2023/05/31 02:44:52;;;;;;;0.40;0.40;;;11.40;99.90;;;;;;5000424;28;20050;-67
2023/05/31 02:47:19;;;;;;;2.40;0.95;;;11.40;99.90;;;;;;5006146;28;20145;-67
2023/05/31 02:49:44;;;;;;;0.22;0.22;;;11.40;99.90;;;;;;5005847;28;20100;-67
2023/05/31 02:52:10;;;;;;;0.30;0.30;;;11.40;99.90;;;;;;5005555;28;20425;-67
2023/05/31 02:54:35;;;;;;;0.10;0.10;;;11.40;99.90;;;;;;5001507;28;20109;-68
2023/05/31 02:57:01;;;;;;;0.10;0.10;;;11.40;99.90;;;;;;5013800;28;20513;-67
2023/05/31 02:59:26;;;;;;;0.40;0.40;;;11.40;99.90;;;;;;5012678;28;20072;-67
2023/05/31 03:01:52;;;;;;;0.00;0.00;;;11.40;99.90;;;;;;5003768;28;20034;-67
2023/05/31 03:04:18;;;;;;;0.10;0.10;;;11.40;99.90;;;;;;5003230;28;20057;-67
2023/05/31 03:06:43;;;;;;;0.00;0.00;;;11.30;99.90;;;;;;5003891;28;20398;-67
2023/05/31 03:09:14;;;;;;;0.63;0.63;;;11.30;99.90;;;;;;4999052;28;20038;-67
2023/05/31 03:11:39;;;;;;;0.20;0.20;;;11.30;99.90;;;;;;4999408;28;20069;-67
2023/05/31 03:14:05;;;;;;;0.00;0.00;;;11.30;99.90;;;;;;5002677;28;20050;-67
2023/05/31 03:16:30;;;;;;;0.10;0.10;;;11.30;99.90;;;;;;5010195;28;20041;-67
2023/05/31 03:18:56;;;;;;;0.03;0.03;;;11.20;99.90;;;;;;5005523;28;20052;-67
2023/05/31 03:21:22;;;;;;;1.13;0.52;;;11.20;99.90;;;;;;5009967;28;20073;-67
2023/05/31 03:23:47;;;;;;;3.25;0.45;;;11.20;99.90;;;;;;5009198;28;20049;-66
2023/05/31 03:26:13;;;;;;;0.17;0.17;;;11.20;99.90;;;;;;5001257;28;20553;-67
2023/05/31 03:28:38;;;;;;;0.00;0.00;;;11.20;99.90;;;;;;5008781;28;20924;-67
2023/05/31 03:31:05;;;;;;;0.73;0.73;;;11.20;99.90;;;;;;5007907;28;20515;-68
2023/05/31 03:33:31;;;;;;;0.10;0.10;;;11.10;99.90;;;;;;5005073;28;20107;-67
2023/05/31 03:35:56;;;;;;;0.30;0.30;;;11.10;99.90;;;;;;5020366;28;20049;-67
2023/05/31 03:38:22;;;;;;;0.50;0.40;;;11.10;99.90;;;;;;5008883;28;20183;-67
2023/05/31 03:40:48;;;;;;;0.00;0.00;;;11.10;99.90;;;;;;5009884;28;20044;-67
2023/05/31 03:43:13;;;;;;;0.25;0.25;;;11.10;99.90;;;;;;4994385;28;20054;-68
2023/05/31 03:45:39;;;;;;;0.17;0.17;;;11.10;99.90;;;;;;5011806;28;20084;-67
2023/05/31 03:48:04;;;;;;;0.45;0.45;;;11.10;99.90;;;;;;5006171;28;20141;-67
2023/05/31 03:50:30;;;;;;;0.10;0.10;;;11.10;99.90;;;;;;5008251;28;20137;-67
2023/05/31 03:52:55;;;;;;;0.65;0.65;;;11.10;99.90;;;;;;5008935;28;20466;-67
2023/05/31 03:55:21;;;;;;;0.20;0.20;;;11.10;99.90;;;;;;5013261;28;20115;-67
2023/05/31 03:57:47;;;;;;;0.10;0.10;;;11.10;99.90;;;;;;5001991;28;20034;-67
2023/05/31 04:00:13;;;;;;;0.10;0.10;;;11.20;99.90;;;;;;5007316;28;20508;-67
2023/05/31 04:02:40;;;;;;;0.08;0.08;;;11.20;99.90;;;;;;5015369;28;21032;-67
2023/05/31 04:05:06;;;;;;;0.10;0.10;;;11.20;99.90;;;;;;5008894;28;20069;-67
2023/05/31 04:07:32;;;;;;;0.10;0.10;;;11.20;99.90;;;;;;4998746;28;20042;-67
2023/05/31 04:09:58;;;;;;;0.43;0.43;;;11.30;99.90;;;;;;5013665;28;20042;-67
2023/05/31 04:12:24;;;;;;;0.45;0.45;;;11.30;99.90;;;;;;5011544;28;20060;-67
2023/05/31 04:14:49;;;;;;;0.13;0.13;;;11.30;99.90;;;;;;5002857;28;20495;-67
2023/05/31 04:17:15;;;;;;;0.28;0.28;;;11.30;99.90;;;;;;5008884;28;20764;-67
2023/05/31 04:19:41;;;;;;;2.20;1.08;;;11.30;99.90;;;;;;5010721;28;20033;-67
2023/05/31 04:22:06;;;;;;;0.20;0.20;;;11.40;99.90;;;;;;5017802;28;20034;-68
2023/05/31 04:24:32;;;;;;;2.08;0.95;;;11.40;99.90;;;;;;5003531;28;20130;-67
2023/05/31 04:26:58;;;;;;;0.10;0.10;;;11.40;99.90;;;;;;5003215;28;20033;-67
2023/05/31 04:29:25;;;;;;;0.00;0.00;;;11.50;99.90;;;;;;5010030;28;20050;-67
2023/05/31 04:31:51;;;;;;;0.10;0.10;;;11.50;99.90;;;;;;5009875;28;20058;-67
2023/05/31 04:34:18;;;;;;;0.10;0.10;;;11.50;99.90;;;;;;4995338;28;20063;-67
2023/05/31 04:36:48;;;;;;;0.40;0.40;;;11.50;99.90;;;;;;5042639;28;20437;-68
2023/05/31 04:39:15;;;;;;;0.20;0.20;;;11.50;99.90;;;;;;5010476;28;20046;-67
2023/05/31 04:41:41;;;;;;;0.10;0.10;;;11.60;99.90;;;;;;5032106;28;20496;-68
2023/05/31 04:44:07;;;;;;;0.10;0.10;;;11.60;99.90;;;;;;5016829;28;20038;-66
2023/05/31 04:46:32;;;;;;;0.00;0.00;;;11.60;99.90;;;;;;5015080;28;20104;-67
2023/05/31 04:49:00;;;;;;;0.00;0.00;;;11.70;99.90;;;;;;5007425;28;20042;-67
2023/05/31 04:51:26;;;;;;;0.10;0.10;;;11.80;99.90;;;;;;5012724;28;20033;-67
2023/05/31 04:53:52;;;;;;;0.10;0.10;;;11.80;99.90;;;;;;5011853;28;20092;-67
2023/05/31 04:56:18;;;;;;;0.22;0.22;;;11.80;99.90;;;;;;5006686;28;20064;-67
2023/05/31 04:58:44;;;;;;;1.55;0.35;;;11.90;99.90;;;;;;5014549;28;20400;-67
2023/05/31 05:01:14;;;;;;;0.10;0.10;;;12.00;99.90;;;;;;5019511;28;20054;-67
2023/05/31 05:03:40;;;;;;;0.10;0.10;;;12.00;99.90;;;;;;5008590;28;20096;-67
2023/05/31 05:06:16;;;;;;;0.50;0.50;;;12.00;99.90;;;;;;5016218;28;20494;-68
2023/05/31 05:08:46;;;;;;;0.68;0.68;;;12.10;99.90;;;;;;5003496;28;20049;-67
2023/05/31 05:11:12;;;;;;;0.20;0.20;;;12.10;99.90;;;;;;5023639;28;20485;-67
2023/05/31 05:13:38;;;;;;;0.00;0.00;;;12.20;99.90;;;;;;5015345;28;20034;-67
2023/05/31 05:16:04;;;;;;;0.00;0.00;;;12.20;99.90;;;;;;5006069;28;20077;-68
2023/05/31 05:18:30;;;;;;;0.10;0.10;;;12.30;99.90;;;;;;4999549;28;20072;-67
2023/05/31 05:20:56;;;;;;;2.65;1.95;;;12.30;99.90;;;;;;5009619;28;20041;-67
2023/05/31 05:23:22;;;;;;;1.02;0.57;;;12.40;99.90;;;;;;5011560;28;20096;-67
2023/05/31 05:25:48;;;;;;;0.10;0.10;;;12.40;99.90;;;;;;5003328;28;20133;-67
2023/05/31 05:28:13;;;;;;;0.10;0.10;;;12.50;99.90;;;;;;5010729;28;20137;-67
2023/05/31 05:30:39;;;;;;;0.10;0.10;;;12.50;99.90;;;;;;5007223;28;20050;-67
2023/05/31 05:33:04;;;;;;;0.10;0.10;;;12.50;99.90;;;;;;5014288;28;20041;-67
2023/05/31 05:35:30;;;;;;;0.00;0.00;;;12.60;99.90;;;;;;5012602;28;20049;-67
2023/05/31 05:37:57;;;;;;;0.32;0.32;;;12.70;99.90;;;;;;5013284;28;20046;-67
2023/05/31 05:40:23;;;;;;;0.52;0.22;;;12.70;99.90;;;;;;5006462;28;20501;-67
2023/05/31 05:42:49;;;;;;;0.10;0.10;;;12.70;99.90;;;;;;5008674;28;20092;-67
2023/05/31 05:45:15;;;;;;;0.17;0.17;;;12.80;99.90;;;;;;5002991;28;20037;-67
2023/05/31 05:47:44;;;;;;;0.30;0.30;;;12.80;99.90;;;;;;5008526;28;20034;-67
2023/05/31 05:50:11;;;;;;;0.10;0.10;;;12.80;99.90;;;;;;5005648;28;20494;-67
2023/05/31 05:52:36;;;;;;;0.25;0.25;;;12.90;99.90;;;;;;5002461;28;20543;-67
2023/05/31 05:55:03;;;;;;;0.10;0.10;;;12.90;99.90;;;;;;5009397;28;20129;-67
2023/05/31 05:57:29;;;;;;;0.00;0.00;;;12.90;99.90;;;;;;5008714;28;20057;-68
2023/05/31 05:59:56;;;;;;;0.10;0.10;;;12.90;99.90;;;;;;5006864;28;20552;-68
2023/05/31 06:02:21;;;;;;;3.70;1.77;;;13.00;99.90;;;;;;5007623;28;20095;-67
2023/05/31 06:04:47;;;;;;;0.00;0.00;;;13.10;99.90;;;;;;4998441;28;20062;-67
2023/05/31 06:07:12;;;;;;;0.55;0.55;;;13.10;99.90;;;;;;5007945;28;20054;-68
2023/05/31 06:09:38;;;;;;;0.08;0.08;;;13.20;99.90;;;;;;4998231;28;20131;-68
2023/05/31 06:12:04;;;;;;;0.20;0.17;;;13.20;99.90;;;;;;5004063;28;20049;-68
2023/05/31 06:14:30;;;;;;;0.10;0.10;;;13.30;99.90;;;;;;5010161;28;20041;-67
2023/05/31 06:16:55;;;;;;;0.00;0.00;;;13.30;99.90;;;;;;4998220;28;20401;-68
2023/05/31 06:19:21;;;;;;;1.10;0.47;;;13.30;99.90;;;;;;5003654;28;20410;-67
2023/05/31 06:21:48;;;;;;;0.00;0.00;;;13.40;99.90;;;;;;5011143;28;20041;-67
2023/05/31 06:24:14;;;;;;;0.00;0.00;;;13.50;99.90;;;;;;4997872;28;20045;-67
2023/05/31 06:26:40;;;;;;;0.03;0.03;;;13.60;99.90;;;;;;5005600;28;20046;-67
2023/05/31 06:29:05;;;;;;;0.00;0.00;;;13.60;99.90;;;;;;5005471;28;20056;-67
2023/05/31 06:31:31;;;;;;;0.15;0.15;;;13.70;99.90;;;;;;5009055;28;20121;-67
2023/05/31 06:33:56;;;;;;;0.03;0.03;;;13.80;99.90;;;;;;5003188;28;20041;-67
2023/05/31 06:36:22;;;;;;;3.35;1.35;;;13.80;99.90;;;;;;5019826;28;20447;-67
2023/05/31 06:38:48;;;;;;;0.77;0.68;;;13.90;99.90;;;;;;5012195;28;20042;-67
2023/05/31 06:41:13;;;;;;;0.20;0.20;;;13.80;99.90;;;;;;5034963;28;20065;-68
2023/05/31 06:43:39;;;;;;;0.20;0.20;;;13.90;99.90;;;;;;5046441;28;20042;-67
2023/05/31 06:46:07;;;;;;;0.38;0.38;;;13.90;99.90;;;;;;5018030;28;20052;-67
2023/05/31 06:48:33;;;;;;;0.03;0.03;;;13.90;99.90;;;;;;5000899;28;20052;-67
2023/05/31 06:50:59;;;;;;;0.30;0.30;;;14.00;99.90;;;;;;5009528;28;20055;-67
2023/05/31 06:53:25;;;;;;;3.53;1.35;;;14.10;99.90;;;;;;5008333;28;20125;-67
2023/05/31 06:55:51;;;;;;;0.05;0.05;;;14.20;99.90;;;;;;5012769;28;20068;-68
2023/05/31 06:58:17;;;;;;;0.20;0.20;;;14.30;99.90;;;;;;5007843;28;20477;-67
2023/05/31 07:00:42;;;;;;;0.00;0.00;;;14.30;99.90;;;;;;5016537;28;20052;-67
2023/05/31 07:03:08;;;;;;;0.35;0.35;;;14.30;99.90;;;;;;4998289;28;20243;-67
2023/05/31 07:05:34;;;;;;;0.00;0.00;;;14.40;99.90;;;;;;5012613;28;20041;-67
2023/05/31 07:08:00;;;;;;;0.00;0.00;;;14.50;99.90;;;;;;5008441;28;20088;-67
2023/05/31 07:10:27;;;;;;;0.00;0.00;;;14.50;99.90;;;;;;5002607;28;20050;-67
2023/05/31 07:12:53;;;;;;;0.00;0.00;;;14.60;99.90;;;;;;5011723;28;20052;-68
2023/05/31 07:15:19;;;;;;;0.52;0.52;;;14.60;99.90;;;;;;5012526;28;20459;-67
2023/05/31 07:17:45;;;;;;;0.20;0.20;;;14.70;99.90;;;;;;5000893;28;20065;-67
2023/05/31 07:20:11;;;;;;;0.10;0.10;;;14.80;99.90;;;;;;5008835;28;20544;-67
2023/05/31 07:22:37;;;;;;;0.00;0.00;;;14.80;99.90;;;;;;4999009;28;20045;-67
2023/05/31 07:25:04;;;;;;;0.00;0.00;;;14.90;99.90;;;;;;5011046;28;20397;-67
2023/05/31 07:27:32;;;;;;;1.25;0.35;;;14.90;99.90;;;;;;5004417;28;20045;-67
2023/05/31 07:29:58;;;;;;;0.00;0.00;;;14.90;99.90;;;;;;5007263;28;20045;-67
2023/05/31 07:32:24;;;;;;;0.00;0.00;;;15.00;99.90;;;;;;5008236;28;20457;-67
2023/05/31 07:34:49;;;;;;;0.10;0.10;;;15.10;99.90;;;;;;5007866;28;20038;-67
2023/05/31 07:37:15;;;;;;;0.10;0.10;;;15.10;99.90;;;;;;5002333;28;20074;-67
2023/05/31 07:39:41;;;;;;;0.00;0.00;;;15.20;99.90;;;;;;5007024;28;20046;-67
2023/05/31 07:42:07;;;;;;;0.00;0.00;;;15.20;99.90;;;;;;5001772;28;20120;-67
2023/05/31 07:44:32;;;;;;;0.03;0.03;;;15.30;99.90;;;;;;5003468;28;20141;-66
2023/05/31 07:46:58;;;;;;;0.47;0.47;;;15.30;99.90;;;;;;5004915;28;20133;-67
2023/05/31 07:49:23;;;;;;;0.15;0.15;;;15.40;99.90;;;;;;5032692;28;20046;-67
2023/05/31 07:51:49;;;;;;;0.05;0.05;;;15.40;99.90;;;;;;5009325;28;20137;-67
2023/05/31 07:54:14;;;;;;;0.10;0.10;;;15.50;99.90;;;;;;5004963;28;20045;-67
2023/05/31 07:56:40;;;;;;;0.45;0.43;;;15.50;99.90;;;;;;5001674;28;20631;-67
2023/05/31 07:59:06;;;;;;;0.75;0.70;;;15.70;99.90;;;;;;4996129;28;20053;-68
2023/05/31 08:01:33;;;;;;;2.58;1.75;;;15.80;99.90;;;;;;5001648;28;20125;-68
2023/05/31 08:04:06;;;;;;;0.00;0.00;;;15.90;99.90;;;;;;5005853;28;20417;-68
2023/05/31 08:06:32;;;;;;;0.13;0.13;;;15.90;99.90;;;;;;4996321;28;20117;-68
2023/05/31 08:08:58;;;;;;;0.00;0.00;;;15.90;99.90;;;;;;4999158;28;20054;-68
2023/05/31 08:11:25;;;;;;;0.00;0.00;;;16.00;99.90;;;;;;5023877;28;20724;-68
2023/05/31 08:13:51;;;;;;;0.43;0.43;;;16.10;99.90;;;;;;5006647;28;20108;-68
2023/05/31 08:16:17;;;;;;;0.00;0.00;;;16.10;99.90;;;;;;5000110;28;20441;-68
2023/05/31 08:18:43;;;;;;;0.10;0.10;;;16.20;99.90;;;;;;5009840;28;20046;-68
2023/05/31 08:21:12;;;;;;;0.30;0.30;;;16.20;99.90;;;;;;5001783;28;20405;-67
2023/05/31 08:23:37;;;;;;;0.00;0.00;;;16.10;99.90;;;;;;4998392;28;20046;-68
2023/05/31 08:26:03;;;;;;;0.00;0.00;;;16.10;99.90;;;;;;5002440;28;20042;-68
2023/05/31 08:28:31;;;;;;;0.38;0.38;;;16.10;99.90;;;;;;5006855;28;20057;-68
2023/05/31 08:30:57;;;;;;;0.00;0.00;;;16.10;99.90;;;;;;5006186;28;20500;-68
2023/05/31 08:33:29;;;;;;;0.00;0.00;;;16.10;99.90;;;;;;5003534;28;20068;-68
2023/05/31 08:35:59;;;;;;;0.00;0.00;;;16.30;99.90;;;;;;5004397;28;20034;-68
2023/05/31 08:38:26;;;;;;;1.38;0.32;;;16.50;99.90;;;;;;5021009;28;20046;-67
2023/05/31 08:40:52;;;;;;;0.00;0.00;;;16.40;99.90;;;;;;5004961;28;20046;-68
2023/05/31 08:43:21;;;;;;;0.03;0.03;;;16.40;99.90;;;;;;5008048;28;20053;-67
2023/05/31 08:45:49;;;;;;;3.45;1.70;;;16.30;99.90;;;;;;5029262;28;20050;-67
2023/05/31 08:48:40;;;;;;;0.10;0.10;;;16.30;99.90;;;;;;5004507;28;20494;-67
2023/05/31 08:51:07;;;;;;;0.00;0.00;;;16.50;99.90;;;;;;5005382;28;20096;-68
2023/05/31 08:53:34;;;;;;;0.47;0.45;;;16.60;99.90;;;;;;5025929;28;20046;-68
2023/05/31 08:56:01;;;;;;;0.00;0.00;;;16.70;99.90;;;;;;5016901;28;20096;-68
2023/05/31 08:58:28;;;;;;;0.10;0.10;;;16.60;99.90;;;;;;5002950;28;20054;-67
2023/05/31 09:00:54;;;;;;;0.20;0.20;;;16.60;99.90;;;;;;5000145;28;20088;-67
2023/05/31 09:03:22;;;;;;;0.00;0.00;;;16.60;99.90;;;;;;5009783;28;20065;-67
2023/05/31 09:05:48;;;;;;;0.00;0.00;;;16.70;99.90;;;;;;5012709;28;20069;-67
2023/05/31 09:08:14;;;;;;;0.20;0.15;;;16.80;99.90;;;;;;4996471;28;20114;-67
2023/05/31 09:10:41;;;;;;;0.00;0.00;;;16.80;99.90;;;;;;5001828;28;20494;-67
2023/05/31 09:13:07;;;;;;;0.20;0.20;;;16.80;99.90;;;;;;5002470;28;20081;-67
2023/05/31 09:15:36;;;;;;;0.08;0.08;;;16.60;99.90;;;;;;5000503;28;20049;-67
2023/05/31 09:18:15;;;;;;;0.00;0.00;;;16.60;99.90;;;;;;5006618;28;20049;-67
2023/05/31 09:20:41;;;;;;;0.10;0.10;;;16.70;99.90;;;;;;5001690;28;20053;-68
2023/05/31 09:23:08;;;;;;;0.57;0.57;;;16.90;99.90;;;;;;5004290;28;20034;-68
2023/05/31 09:25:49;;;;;;;0.00;0.00;;;16.90;99.90;;;;;;5009035;28;20053;-68
2023/05/31 09:28:16;;;;;;;0.30;0.30;;;16.90;99.90;;;;;;5002177;28;20054;-68
2023/05/31 09:30:42;;;;;;;5.82;1.55;;;16.80;99.90;;;;;;5005861;28;20047;-68
2023/05/31 09:33:08;;;;;;;0.10;0.10;;;17.00;99.90;;;;;;5010592;28;20531;-68
2023/05/31 09:35:33;;;;;;;0.10;0.10;;;16.90;99.90;;;;;;5008944;28;20046;-68
2023/05/31 09:38:07;;;;;;;1.27;0.95;;;17.00;99.90;;;;;;5036953;28;20050;-68
2023/05/31 09:40:33;;;;;;;0.13;0.13;;;17.00;99.90;;;;;;5006038;28;20420;-68
2023/05/31 09:42:59;;;;;;;0.20;0.20;;;17.00;99.90;;;;;;5010837;28;20437;-68
2023/05/31 09:45:28;;;;;;;0.20;0.20;;;17.40;99.90;;;;;;5004025;28;20065;-68
2023/05/31 09:47:53;;;;;;;0.70;0.55;;;17.70;99.90;;;;;;5003925;28;20042;-68
2023/05/31 09:50:23;;;;;;;0.40;0.40;;;17.60;99.90;;;;;;5010077;28;20042;-68
2023/05/31 09:52:55;;;;;;;0.52;0.52;;;17.40;99.90;;;;;;5001076;28;20041;-68
2023/05/31 09:55:20;;;;;;;0.20;0.20;;;17.40;99.90;;;;;;5026125;28;20100;-68
2023/05/31 09:57:46;;;;;;;0.30;0.20;;;17.80;99.90;;;;;;5013193;28;20077;-68
2023/05/31 10:00:17;;;;;;;4.57;1.10;;;18.00;99.90;;;;;;5001083;28;20406;-68
2023/05/31 10:02:52;;;;;;;0.65;0.30;;;18.10;99.90;;;;;;5004986;28;20038;-68
2023/05/31 10:05:19;;;;;;;0.10;0.10;;;18.30;99.90;;;;;;4995832;28;20070;-68
2023/05/31 10:07:48;;;;;;;0.10;0.10;;;18.50;99.90;;;;;;5006995;28;20064;-68
2023/05/31 10:10:15;;;;;;;0.20;0.17;;;18.50;99.90;;;;;;5010698;28;20057;-68
2023/05/31 10:12:53;;;;;;;10.00;1.80;;;18.50;99.90;;;;;;5000276;28;20494;-68
2023/05/31 10:15:23;;;;;;;0.10;0.10;;;18.40;99.90;;;;;;5007858;28;20086;-68
2023/05/31 10:18:09;;;;;;;0.30;0.30;;;18.60;99.90;;;;;;5003098;28;20050;-69
2023/05/31 10:20:43;;;;;;;2.45;0.65;;;18.60;99.90;;;;;;5007180;28;20042;-70
2023/05/31 10:23:18;;;;;;;0.10;0.10;;;18.70;99.90;;;;;;5010306;28;20057;-69
2023/05/31 10:25:53;;;;;;;0.00;0.00;;;18.80;99.90;;;;;;4998781;28;20046;-69
2023/05/31 10:28:23;;;;;;;0.40;0.30;;;18.90;99.90;;;;;;5004954;28;20069;-69
2023/05/31 10:30:51;;;;;;;0.50;0.50;;;18.90;99.90;;;;;;5012820;28;20093;-69
2023/05/31 10:33:18;;;;;;;2.78;2.50;;;19.10;99.90;;;;;;5009053;28;20516;-69
2023/05/31 10:35:45;;;;;;;0.73;0.20;;;19.20;99.90;;;;;;5001871;28;20046;-69
2023/05/31 10:38:11;;;;;;;1.48;0.75;;;19.40;99.90;;;;;;5004363;28;20052;-69
2023/05/31 10:40:53;;;;;;;0.00;0.00;;;19.40;99.90;;;;;;4998814;28;20049;-69
2023/05/31 10:43:20;;;;;;;0.10;0.10;;;19.60;99.90;;;;;;5002965;28;20493;-69
2023/05/31 10:45:51;;;;;;;0.50;0.50;;;19.50;99.90;;;;;;5010969;28;20397;-69
2023/05/31 10:48:29;;;;;;;0.00;0.00;;;19.40;99.90;;;;;;5003505;28;20046;-69
2023/05/31 10:51:00;;;;;;;0.30;0.30;;;19.40;99.90;;;;;;5001863;28;20045;-68
2023/05/31 10:53:37;;;;;;;0.03;0.03;;;19.30;99.90;;;;;;5010166;28;20084;-69
2023/05/31 10:56:11;;;;;;;0.40;0.40;;;19.50;99.90;;;;;;5004506;28;20393;-69
2023/05/31 10:58:36;;;;;;;;;;;19.60;99.90;;;;;;5032181;28;20548;-69
2023/05/31 11:01:13;;;;;;;0.10;0.10;;;19.70;99.90;;;;;;4996427;28;20429;-69
2023/05/31 11:03:52;;;;;;;0.20;0.20;;;19.80;99.90;;;;;;5002452;28;20046;-68
2023/05/31 11:06:29;;;;;;;0.43;0.30;;;19.90;99.90;;;;;;5009069;28;20054;-69
2023/05/31 11:09:12;;;;;;;0.65;0.55;;;19.90;99.90;;;;;;4994150;28;20078;-69
2023/05/31 11:11:41;;;;;;;0.20;0.20;;;20.00;99.90;;;;;;4995678;28;20050;-69
2023/05/31 11:14:27;;;;;;;0.63;0.63;;;20.10;99.90;;;;;;5026441;28;20051;-69
2023/05/31 11:17:06;;;;;;;0.00;0.00;;;20.00;99.90;;;;;;5008593;28;20485;-69
2023/05/31 11:19:34;;;;;;;1.15;1.02;;;19.90;99.90;;;;;;4997974;28;20046;-69
2023/05/31 11:22:18;;;;;;;0.68;0.68;;;20.10;99.90;;;;;;5001915;28;20049;-69
2023/05/31 11:24:52;;;;;;;0.30;0.30;;;20.20;99.90;;;;;;5006785;28;20038;-69
2023/05/31 11:27:22;;;;;;;0.15;0.15;;;20.40;99.90;;;;;;4998310;28;20433;-68
2023/05/31 11:29:51;;;;;;;0.52;0.20;;;20.50;99.90;;;;;;4998636;28;20066;-69
2023/05/31 11:32:21;;;;;;;0.00;0.00;;;20.30;99.90;;;;;;4998267;28;20045;-69
2023/05/31 11:34:57;;;;;;;0.00;0.00;;;20.50;99.90;;;;;;5011766;28;20046;-69
2023/05/31 11:37:27;;;;;;;0.03;0.03;;;20.40;99.90;;;;;;5001984;28;20041;-69
2023/05/31 11:39:54;;;;;;;0.75;0.32;;;20.10;99.90;;;;;;5001654;28;20053;-69
2023/05/31 11:42:20;;;;;;;0.50;0.50;;;20.50;99.90;;;;;;4996385;28;20443;-69
2023/05/31 11:44:46;;;;;;;1.95;0.38;;;20.30;99.90;;;;;;5006328;28;20393;-68
2023/05/31 11:47:25;;;;;;;0.00;0.00;;;20.50;99.90;;;;;;4999606;28;20046;-68
2023/05/31 11:49:51;;;;;;;0.80;0.80;;;20.50;99.90;;;;;;4998808;28;20061;-69
2023/05/31 11:52:20;;;;;;;0.00;0.00;;;20.80;99.90;;;;;;5002257;28;20042;-69
2023/05/31 11:54:50;;;;;;;0.00;0.00;;;20.70;99.90;;;;;;5008181;28;20551;-68
2023/05/31 11:57:17;;;;;;;0.15;0.15;;;20.70;99.90;;;;;;5007265;28;20050;-69
2023/05/31 11:59:43;;;;;;;0.30;0.30;;;21.00;99.90;;;;;;4999126;28;20050;-69
2023/05/31 12:02:10;;;;;;;0.10;0.10;;;21.30;99.90;;;;;;5006298;28;20042;-68
2023/05/31 12:04:41;;;;;;;0.10;0.10;;;21.10;99.90;;;;;;5008481;28;20042;-69
2023/05/31 12:07:11;;;;;;;0.20;0.20;;;21.30;99.90;;;;;;5011416;28;20042;-69
2023/05/31 12:09:37;;;;;;;0.45;0.45;;;21.30;99.90;;;;;;5012687;28;20038;-69
2023/05/31 12:12:05;;;;;;;0.20;0.20;;;21.20;99.90;;;;;;5007970;28;20073;-69
2023/05/31 12:14:31;;;;;;;0.43;0.32;;;21.40;99.90;;;;;;5000036;28;20096;-69
2023/05/31 12:17:02;;;;;;;0.80;0.80;;;21.60;99.90;;;;;;5008250;28;20061;-69
2023/05/31 12:19:27;;;;;;;0.03;0.03;;;21.60;99.90;;;;;;5008492;28;20038;-69
2023/05/31 12:21:53;;;;;;;0.30;0.30;;;21.80;99.90;;;;;;5008532;28;20517;-69
2023/05/31 12:24:19;;;;;;;0.00;0.00;;;21.50;99.90;;;;;;5008624;28;20038;-69
2023/05/31 12:26:48;;;;;;;0.65;0.25;;;21.70;99.90;;;;;;5003479;28;20034;-69
2023/05/31 12:29:14;;;;;;;5.93;0.40;;;21.70;99.90;;;;;;5012014;28;20054;-69
2023/05/31 12:31:40;;;;;;;0.28;0.28;;;22.00;99.90;;;;;;5006156;28;20073;-69
2023/05/31 12:34:05;;;;;;;1.27;0.68;;;21.90;99.90;;;;;;5001704;28;20042;-68
2023/05/31 12:36:41;;;;;;;0.00;0.00;;;22.10;99.90;;;;;;5016439;28;20524;-68
2023/05/31 12:39:13;;;;;;;3.92;1.20;;;22.10;99.90;;;;;;5009749;28;20046;-68
2023/05/31 12:41:43;;;;;;;0.65;0.65;;;22.10;99.90;;;;;;5008389;28;20050;-69
2023/05/31 12:44:09;;;;;;;0.00;0.00;;;22.50;99.90;;;;;;5013331;28;20460;-69
2023/05/31 12:46:45;;;;;;;0.28;0.28;;;22.60;99.90;;;;;;5008807;28;20034;-69
2023/05/31 12:49:30;;;;;;;0.22;0.20;;;22.70;99.90;;;;;;5012192;28;20084;-69
2023/05/31 12:52:03;;;;;;;0.28;0.28;;;22.50;99.90;;;;;;5013371;28;20042;-69